Time;durP1;ratioP1;P1;durP2;ratioP2;P2;SDS_P1;SDS_P2;PMS_P1;PMS_P2;Temp;Humidity;BMP_temperature;BMP_pressure;BME280_temperature;BME280_humidity;BME280_pressure;Samples;Min_cycle;Max_cycle;Signal;HPM_P1;HPM_P2
2022/01/09 00:02:05;;;;;;;3.15;1.25;;;;;;;;;;4969355;28;20381;-76
2022/01/09 00:04:30;;;;;;;1.90;1.10;;;;;;;;;;4968356;28;20082;-76
2022/01/09 00:06:56;;;;;;;3.17;1.30;;;;;;;;;;4966008;28;20035;-76
2022/01/09 00:09:21;;;;;;;3.38;1.55;;;;;;;;;;4969305;28;20106;-77
2022/01/09 00:11:46;;;;;;;3.05;1.40;;;;;;;;;;4970869;28;20062;-78
2022/01/09 00:14:11;;;;;;;2.53;1.40;;;;;;;;;;4970466;28;20482;-78
2022/01/09 00:16:36;;;;;;;4.10;1.42;;;;;;;;;;4963701;28;20043;-76
2022/01/09 00:19:02;;;;;;;2.72;1.30;;;;;;;;;;4964995;28;20463;-78
2022/01/09 00:21:27;;;;;;;1.83;1.02;;;;;;;;;;4970901;28;20027;-77
2022/01/09 00:23:52;;;;;;;3.97;1.38;;;;;;;;;;4971137;28;20022;-78
2022/01/09 00:26:17;;;;;;;2.28;1.20;;;;;;;;;;4970804;28;20501;-80
2022/01/09 00:28:42;;;;;;;3.38;1.75;;;;;;;;;;4973787;28;20096;-78
2022/01/09 00:31:08;;;;;;;1.80;1.10;;;;;;;;;;4970159;28;20102;-78
2022/01/09 00:33:33;;;;;;;2.53;1.10;;;;;;;;;;4973485;28;20030;-78
2022/01/09 00:35:59;;;;;;;3.63;1.40;;;;;;;;;;4972054;28;20015;-77
2022/01/09 00:38:24;;;;;;;2.92;1.13;;;;;;;;;;4973938;28;20030;-78
2022/01/09 00:40:49;;;;;;;5.40;1.23;;;;;;;;;;4972188;28;20031;-78
2022/01/09 00:43:15;;;;;;;3.45;1.40;;;;;;;;;;4973142;28;21904;-78
2022/01/09 00:45:40;;;;;;;3.50;1.30;;;;;;;;;;4968864;28;20038;-79
2022/01/09 00:48:06;;;;;;;2.72;1.20;;;;;;;;;;4971850;28;20050;-78
2022/01/09 00:50:33;;;;;;;3.40;1.58;;;;;;;;;;4973057;28;20047;-77
2022/01/09 00:52:58;;;;;;;2.33;1.20;;;;;;;;;;4972168;28;20198;-77
2022/01/09 00:55:23;;;;;;;2.33;1.08;;;;;;;;;;4973734;28;20470;-78
2022/01/09 00:57:48;;;;;;;3.17;1.15;;;;;;;;;;4973294;28;20109;-79
2022/01/09 01:00:14;;;;;;;3.53;1.45;;;;;;;;;;4971259;28;20023;-78
2022/01/09 01:02:39;;;;;;;3.40;1.05;;;;;;;;;;4969674;28;20458;-77
2022/01/09 01:05:05;;;;;;;2.17;1.20;;;;;;;;;;4972801;28;20062;-78
2022/01/09 01:07:30;;;;;;;2.38;1.08;;;;;;;;;;4973022;28;20499;-75
2022/01/09 01:09:57;;;;;;;3.88;1.40;;;;;;;;;;4967275;28;20016;-79
2022/01/09 01:12:24;;;;;;;2.05;1.48;;;;;;;;;;4961916;28;20113;-76
2022/01/09 01:14:49;;;;;;;2.92;1.33;;;;;;;;;;4967524;28;20588;-78
2022/01/09 01:17:14;;;;;;;2.40;1.35;;;;;;;;;;4973045;28;20034;-78
2022/01/09 01:19:39;;;;;;;1.63;1.02;;;;;;;;;;4972731;28;20022;-77
2022/01/09 01:22:05;;;;;;;2.97;1.00;;;;;;;;;;4972067;28;20030;-77
2022/01/09 01:24:31;;;;;;;2.53;1.00;;;;;;;;;;4970188;28;20035;-78
2022/01/09 01:26:56;;;;;;;1.55;0.90;;;;;;;;;;4966410;28;20050;-78
2022/01/09 01:29:21;;;;;;;1.92;0.90;;;;;;;;;;4969499;28;20070;-78
2022/01/09 01:31:46;;;;;;;2.13;1.00;;;;;;;;;;4970895;28;20014;-79
2022/01/09 01:34:14;;;;;;;1.98;0.90;;;;;;;;;;4969452;28;20133;-77
2022/01/09 01:36:40;;;;;;;1.63;0.75;;;;;;;;;;4967150;28;20474;-77
2022/01/09 01:39:05;;;;;;;2.60;1.10;;;;;;;;;;4970575;28;20031;-77
2022/01/09 01:41:30;;;;;;;2.33;1.00;;;;;;;;;;4971446;28;20331;-77
2022/01/09 01:43:56;;;;;;;2.67;1.35;;;;;;;;;;4962136;28;20133;-78
2022/01/09 01:46:21;;;;;;;1.80;0.90;;;;;;;;;;4976215;28;20054;-78
2022/01/09 01:48:48;;;;;;;1.58;0.80;;;;;;;;;;4978725;28;20034;-77
2022/01/09 01:51:13;;;;;;;1.27;0.82;;;;;;;;;;4981043;28;20053;-78
2022/01/09 01:53:39;;;;;;;1.50;0.90;;;;;;;;;;4978085;28;20118;-77
2022/01/09 01:56:04;;;;;;;2.45;1.00;;;;;;;;;;4973254;28;20137;-77
2022/01/09 01:58:34;;;;;;;1.40;0.80;;;;;;;;;;4974056;28;20034;-77
2022/01/09 02:00:59;;;;;;;;;;;;;;;;;;4973711;28;20026;-78
2022/01/09 02:03:25;;;;;;;2.10;0.88;;;;;;;;;;4970771;28;19918;-76
2022/01/09 02:05:50;;;;;;;1.85;0.90;;;;;;;;;;4971877;28;20286;-78
2022/01/09 02:08:15;;;;;;;1.55;0.95;;;;;;;;;;4949549;28;20101;-77
2022/01/09 02:10:41;;;;;;;1.38;0.85;;;;;;;;;;4970829;28;20079;-77
2022/01/09 02:13:07;;;;;;;1.48;0.88;;;;;;;;;;4972763;28;20386;-78
2022/01/09 02:15:34;;;;;;;1.25;0.70;;;;;;;;;;4971153;28;20039;-77
2022/01/09 02:18:03;;;;;;;1.42;0.88;;;;;;;;;;4968678;28;20031;-78
2022/01/09 02:20:28;;;;;;;;;;;;;;;;;;4965294;28;20108;-77
2022/01/09 02:22:54;;;;;;;1.63;0.77;;;;;;;;;;4969919;28;19961;-78
2022/01/09 02:25:19;;;;;;;1.15;0.90;;;;;;;;;;4968827;28;20038;-78
2022/01/09 02:27:44;;;;;;;1.48;0.80;;;;;;;;;;4971506;28;20537;-77
2022/01/09 02:30:10;;;;;;;2.70;0.82;;;;;;;;;;4970585;28;20027;-77
2022/01/09 02:32:35;;;;;;;2.22;0.80;;;;;;;;;;4971317;28;20097;-78
2022/01/09 02:35:00;;;;;;;1.50;0.90;;;;;;;;;;4970754;28;20031;-78
2022/01/09 02:37:25;;;;;;;1.45;0.95;;;;;;;;;;4965506;28;20670;-77
2022/01/09 02:39:51;;;;;;;1.05;0.70;;;;;;;;;;4969494;28;20159;-77
2022/01/09 02:42:17;;;;;;;1.38;0.70;;;;;;;;;;4967342;28;20038;-77
2022/01/09 02:44:42;;;;;;;1.30;0.80;;;;;;;;;;4966770;28;20043;-77
2022/01/09 02:47:07;;;;;;;1.30;0.80;;;;;;;;;;4966326;28;20113;-78
2022/01/09 02:49:33;;;;;;;1.38;0.73;;;;;;;;;;4967296;28;20022;-78
2022/01/09 02:51:58;;;;;;;2.45;0.80;;;;;;;;;;4970564;28;20027;-77
2022/01/09 02:57:08;;;;;;;0.95;0.60;;;;;;;;;;4969616;28;20142;-78
2022/01/09 02:59:33;;;;;;;1.48;0.63;;;;;;;;;;4967105;28;20038;-76
2022/01/09 03:01:58;;;;;;;0.70;0.60;;;;;;;;;;4962531;28;20070;-78
2022/01/09 03:04:23;;;;;;;1.95;0.70;;;;;;;;;;4968632;28;20022;-78
2022/01/09 03:06:48;;;;;;;0.95;0.60;;;;;;;;;;4969620;28;20047;-77
2022/01/09 03:09:14;;;;;;;0.98;0.60;;;;;;;;;;4969464;28;20109;-79
2022/01/09 03:11:40;;;;;;;3.28;0.80;;;;;;;;;;4964554;28;20027;-76
2022/01/09 03:14:07;;;;;;;2.47;0.80;;;;;;;;;;4970768;28;20584;-76
2022/01/09 03:16:32;;;;;;;1.27;0.60;;;;;;;;;;4969012;28;20454;-78
2022/01/09 03:18:57;;;;;;;1.85;0.88;;;;;;;;;;4966579;28;20110;-78
2022/01/09 03:21:22;;;;;;;1.20;0.65;;;;;;;;;;4967420;28;20454;-78
2022/01/09 03:23:48;;;;;;;1.58;0.68;;;;;;;;;;4963418;28;20033;-76
2022/01/09 03:26:13;;;;;;;1.67;0.75;;;;;;;;;;4951818;28;20486;-76
2022/01/09 03:28:38;;;;;;;1.60;0.70;;;;;;;;;;4964483;28;20030;-78
2022/01/09 03:31:03;;;;;;;1.45;0.60;;;;;;;;;;4964010;28;20093;-77
2022/01/09 03:33:28;;;;;;;2.40;0.60;;;;;;;;;;4969453;28;20039;-76
2022/01/09 03:35:53;;;;;;;1.40;0.50;;;;;;;;;;4964978;28;20035;-77
2022/01/09 03:38:19;;;;;;;0.65;0.50;;;;;;;;;;4969544;28;20390;-77
2022/01/09 03:40:44;;;;;;;0.60;0.50;;;;;;;;;;4968502;28;20065;-77
2022/01/09 03:43:09;;;;;;;1.20;0.70;;;;;;;;;;4969470;28;20030;-77
2022/01/09 03:45:34;;;;;;;1.85;0.50;;;;;;;;;;4966870;28;20108;-78
2022/01/09 03:47:59;;;;;;;0.85;0.50;;;;;;;;;;4968636;28;20023;-78
2022/01/09 03:50:25;;;;;;;2.17;0.82;;;;;;;;;;4969518;28;20027;-77
2022/01/09 03:52:50;;;;;;;0.80;0.50;;;;;;;;;;4964350;28;20027;-77
2022/01/09 03:55:19;;;;;;;1.20;0.70;;;;;;;;;;4969117;28;20027;-78
2022/01/09 03:57:44;;;;;;;0.50;0.40;;;;;;;;;;4969484;28;20048;-77
2022/01/09 04:00:11;;;;;;;0.73;0.60;;;;;;;;;;4964056;28;20022;-77
2022/01/09 04:02:36;;;;;;;2.28;0.80;;;;;;;;;;4963552;28;20065;-78
2022/01/09 04:05:02;;;;;;;0.82;0.50;;;;;;;;;;4964708;28;20055;-79
2022/01/09 04:07:27;;;;;;;1.88;0.60;;;;;;;;;;4965848;28;20445;-76
2022/01/09 04:09:53;;;;;;;1.73;0.80;;;;;;;;;;4969242;28;20018;-77
2022/01/09 04:12:19;;;;;;;1.17;0.50;;;;;;;;;;4967120;28;20030;-77
2022/01/09 04:14:48;;;;;;;3.60;0.77;;;;;;;;;;4968668;28;20054;-77
2022/01/09 04:17:25;;;;;;;0.52;0.40;;;;;;;;;;4968930;28;20122;-78
2022/01/09 04:19:50;;;;;;;1.00;0.73;;;;;;;;;;4965769;28;20062;-78
2022/01/09 04:22:15;;;;;;;1.30;0.60;;;;;;;;;;4968731;28;20038;-78
2022/01/09 04:24:40;;;;;;;0.90;0.70;;;;;;;;;;4968250;28;20030;-78
2022/01/09 04:27:05;;;;;;;1.33;0.47;;;;;;;;;;4967526;28;20121;-79
2022/01/09 04:29:31;;;;;;;1.23;0.50;;;;;;;;;;4969177;28;20463;-78
2022/01/09 04:31:56;;;;;;;1.67;0.70;;;;;;;;;;4968533;28;20026;-79
2022/01/09 04:34:21;;;;;;;2.20;1.38;;;;;;;;;;4968070;28;20031;-78
2022/01/09 04:36:46;;;;;;;1.65;0.60;;;;;;;;;;4966904;28;20027;-77
2022/01/09 04:39:11;;;;;;;0.80;0.70;;;;;;;;;;4965221;28;20478;-76
2022/01/09 04:41:37;;;;;;;0.73;0.40;;;;;;;;;;4968894;28;20159;-78
2022/01/09 04:44:02;;;;;;;1.00;0.50;;;;;;;;;;4968249;28;20683;-78
2022/01/09 04:46:38;;;;;;;1.80;0.60;;;;;;;;;;4968346;28;20385;-78
2022/01/09 04:49:03;;;;;;;1.02;0.32;;;;;;;;;;4964719;28;20035;-77
2022/01/09 04:51:28;;;;;;;0.70;0.43;;;;;;;;;;4964608;28;20087;-77
2022/01/09 04:53:53;;;;;;;0.93;0.60;;;;;;;;;;4965928;28;20090;-79
2022/01/09 04:56:19;;;;;;;0.82;0.40;;;;;;;;;;4965902;28;20488;-76
2022/01/09 04:58:44;;;;;;;0.57;0.50;;;;;;;;;;4962421;28;20030;-77
2022/01/09 05:01:09;;;;;;;1.65;0.60;;;;;;;;;;4960327;28;20021;-78
2022/01/09 05:03:34;;;;;;;1.75;0.75;;;;;;;;;;4964010;28;20090;-78
2022/01/09 05:06:00;;;;;;;0.77;0.40;;;;;;;;;;4968427;28;20027;-78
2022/01/09 05:08:25;;;;;;;0.57;0.40;;;;;;;;;;4968554;28;20061;-79
2022/01/09 05:10:50;;;;;;;0.32;0.30;;;;;;;;;;4968961;28;20031;-78
2022/01/09 05:13:15;;;;;;;0.38;0.22;;;;;;;;;;4968678;28;20057;-78
2022/01/09 05:15:40;;;;;;;0.50;0.38;;;;;;;;;;4969922;28;20047;-77
2022/01/09 05:18:12;;;;;;;0.68;0.20;;;;;;;;;;4952951;28;20023;-76
2022/01/09 05:20:37;;;;;;;0.30;0.25;;;;;;;;;;4967017;28;20106;-77
2022/01/09 05:23:03;;;;;;;0.32;0.32;;;;;;;;;;4969006;28;20105;-78
2022/01/09 05:25:29;;;;;;;0.50;0.28;;;;;;;;;;4972460;28;20126;-76
2022/01/09 05:27:54;;;;;;;0.32;0.20;;;;;;;;;;4970504;28;20030;-76
2022/01/09 05:30:19;;;;;;;1.08;0.20;;;;;;;;;;4972500;28;20026;-77
2022/01/09 05:32:44;;;;;;;1.10;0.20;;;;;;;;;;4967127;28;20461;-78
2022/01/09 05:35:10;;;;;;;0.85;0.20;;;;;;;;;;4971604;28;20772;-76
2022/01/09 05:37:35;;;;;;;0.30;0.20;;;;;;;;;;4968194;28;20038;-75
2022/01/09 05:40:00;;;;;;;0.93;0.30;;;;;;;;;;4967763;28;20038;-76
2022/01/09 05:42:25;;;;;;;1.25;0.30;;;;;;;;;;4971668;28;20034;-76
2022/01/09 05:44:51;;;;;;;0.57;0.17;;;;;;;;;;4971225;28;20050;-76
2022/01/09 05:47:16;;;;;;;0.50;0.40;;;;;;;;;;4969708;28;20039;-76
2022/01/09 05:49:42;;;;;;;0.98;0.20;;;;;;;;;;4970299;28;20023;-77
2022/01/09 05:52:07;;;;;;;0.55;0.30;;;;;;;;;;4974957;28;20041;-76
2022/01/09 05:54:32;;;;;;;0.47;0.20;;;;;;;;;;4968213;28;20038;-79
2022/01/09 05:56:57;;;;;;;0.30;0.20;;;;;;;;;;4972147;28;20102;-78
2022/01/09 05:59:23;;;;;;;0.20;0.13;;;;;;;;;;4969840;28;20423;-76
2022/01/09 06:01:48;;;;;;;0.13;0.13;;;;;;;;;;4971553;28;20450;-77
2022/01/09 06:04:13;;;;;;;0.50;0.20;;;;;;;;;;4970782;28;20219;-77
2022/01/09 06:06:38;;;;;;;0.10;0.10;;;;;;;;;;4971865;28;20026;-78
2022/01/09 06:09:04;;;;;;;0.22;0.17;;;;;;;;;;4969992;28;20065;-77
2022/01/09 06:11:29;;;;;;;0.82;0.20;;;;;;;;;;4965068;28;20046;-77
2022/01/09 06:13:54;;;;;;;0.10;0.10;;;;;;;;;;4969941;28;20027;-77
2022/01/09 06:16:19;;;;;;;0.43;0.20;;;;;;;;;;4967305;28;20066;-76
2022/01/09 06:18:45;;;;;;;0.17;0.17;;;;;;;;;;4963568;28;20559;-78
2022/01/09 06:21:10;;;;;;;0.10;0.10;;;;;;;;;;4964351;28;20039;-79
2022/01/09 06:23:35;;;;;;;0.40;0.20;;;;;;;;;;4971071;28;20033;-76
2022/01/09 06:26:00;;;;;;;0.20;0.20;;;;;;;;;;4969238;28;20054;-77
2022/01/09 06:28:26;;;;;;;0.15;0.15;;;;;;;;;;4968600;28;20046;-78
2022/01/09 06:30:51;;;;;;;0.20;0.20;;;;;;;;;;4969817;28;20023;-78
2022/01/09 06:33:16;;;;;;;0.10;0.10;;;;;;;;;;4970477;28;20031;-78
2022/01/09 06:35:41;;;;;;;0.20;0.20;;;;;;;;;;4970705;28;20026;-76
2022/01/09 06:38:07;;;;;;;0.20;0.20;;;;;;;;;;4966242;28;20093;-76
2022/01/09 06:40:32;;;;;;;0.20;0.20;;;;;;;;;;4966104;28;20383;-78
2022/01/09 06:42:58;;;;;;;0.20;0.20;;;;;;;;;;4969864;28;20771;-78
2022/01/09 06:45:24;;;;;;;0.30;0.20;;;;;;;;;;4967142;28;20024;-78
2022/01/09 06:47:50;;;;;;;0.22;0.20;;;;;;;;;;4965697;28;20121;-77
2022/01/09 06:50:15;;;;;;;0.13;0.10;;;;;;;;;;4967487;28;20651;-78
2022/01/09 06:52:41;;;;;;;0.35;0.10;;;;;;;;;;4969865;28;20105;-77
2022/01/09 06:55:06;;;;;;;0.10;0.10;;;;;;;;;;4968346;28;20039;-77
2022/01/09 06:57:31;;;;;;;0.32;0.10;;;;;;;;;;4966277;28;20058;-77
2022/01/09 06:59:57;;;;;;;0.10;0.10;;;;;;;;;;4964905;28;20054;-76
2022/01/09 07:02:22;;;;;;;0.30;0.17;;;;;;;;;;4968447;28;20034;-75
2022/01/09 07:04:47;;;;;;;1.10;0.10;;;;;;;;;;4969397;28;20027;-74
2022/01/09 07:07:12;;;;;;;0.20;0.10;;;;;;;;;;4964789;28;20066;-76
2022/01/09 07:09:38;;;;;;;0.20;0.20;;;;;;;;;;4969014;28;20018;-75
2022/01/09 07:12:04;;;;;;;0.30;0.10;;;;;;;;;;4965851;28;20470;-75
2022/01/09 07:14:29;;;;;;;0.30;0.17;;;;;;;;;;4967613;28;20015;-74
2022/01/09 07:16:54;;;;;;;0.10;0.10;;;;;;;;;;4960860;28;20474;-73
2022/01/09 07:19:20;;;;;;;0.30;0.20;;;;;;;;;;4962605;28;20065;-74
2022/01/09 07:21:46;;;;;;;0.82;0.10;;;;;;;;;;4965228;28;20118;-77
2022/01/09 07:24:11;;;;;;;0.20;0.20;;;;;;;;;;4968694;28;20378;-76
2022/01/09 07:26:36;;;;;;;0.20;0.17;;;;;;;;;;4969066;28;20197;-74
2022/01/09 07:29:01;;;;;;;0.10;0.10;;;;;;;;;;4964954;28;20490;-75
2022/01/09 07:31:27;;;;;;;0.70;0.20;;;;;;;;;;4969133;28;20030;-74
2022/01/09 07:33:52;;;;;;;0.10;0.10;;;;;;;;;;4967003;28;20039;-75
2022/01/09 07:36:19;;;;;;;0.30;0.20;;;;;;;;;;4969162;28;20045;-75
2022/01/09 07:38:44;;;;;;;0.13;0.13;;;;;;;;;;4965446;28;20443;-76
2022/01/09 07:41:12;;;;;;;0.10;0.10;;;;;;;;;;4969362;28;20066;-75
2022/01/09 07:43:37;;;;;;;0.30;0.20;;;;;;;;;;4967746;28;20035;-74
2022/01/09 07:46:02;;;;;;;0.10;0.10;;;;;;;;;;4968808;28;20576;-75
2022/01/09 07:48:28;;;;;;;0.63;0.10;;;;;;;;;;4967583;28;20034;-74
2022/01/09 07:50:53;;;;;;;0.10;0.10;;;;;;;;;;4964964;28;20027;-75
2022/01/09 07:53:23;;;;;;;0.30;0.20;;;;;;;;;;4969123;28;20035;-75
2022/01/09 07:55:48;;;;;;;0.10;0.10;;;;;;;;;;4968627;28;20033;-74
2022/01/09 07:58:13;;;;;;;0.35;0.22;;;;;;;;;;4964078;28;20343;-74
2022/01/09 08:00:38;;;;;;;0.45;0.28;;;;;;;;;;4967678;28;20050;-75
2022/01/09 08:03:03;;;;;;;0.25;0.20;;;;;;;;;;4965295;28;20031;-75
2022/01/09 08:05:29;;;;;;;0.30;0.20;;;;;;;;;;4963472;28;20085;-75
2022/01/09 08:07:54;;;;;;;0.30;0.30;;;;;;;;;;4972208;28;20039;-74
2022/01/09 08:10:19;;;;;;;0.60;0.30;;;;;;;;;;4968345;28;20489;-76
2022/01/09 08:12:44;;;;;;;0.35;0.25;;;;;;;;;;4966121;28;20031;-75
2022/01/09 08:15:10;;;;;;;1.08;0.55;;;;;;;;;;4968451;28;20046;-76
2022/01/09 08:17:35;;;;;;;0.73;0.30;;;;;;;;;;4964432;28;20073;-75
2022/01/09 08:20:00;;;;;;;1.90;0.80;;;;;;;;;;4968004;28;20092;-76
2022/01/09 08:22:29;;;;;;;0.40;0.30;;;;;;;;;;4968436;28;20394;-75
2022/01/09 08:24:54;;;;;;;0.40;0.30;;;;;;;;;;4968556;28;20042;-77
2022/01/09 08:27:20;;;;;;;0.30;0.30;;;;;;;;;;4965666;28;20491;-75
2022/01/09 08:29:45;;;;;;;0.55;0.40;;;;;;;;;;4967194;28;20026;-75
2022/01/09 08:32:12;;;;;;;0.30;0.25;;;;;;;;;;4967412;28;20042;-74
2022/01/09 08:34:37;;;;;;;0.63;0.47;;;;;;;;;;4969545;28;20035;-76
2022/01/09 08:37:02;;;;;;;0.25;0.20;;;;;;;;;;4969304;28;20025;-74
2022/01/09 08:39:28;;;;;;;0.50;0.30;;;;;;;;;;4973566;28;20030;-76
2022/01/09 08:41:53;;;;;;;2.35;0.30;;;;;;;;;;4972643;28;20031;-74
2022/01/09 08:44:18;;;;;;;0.77;0.30;;;;;;;;;;4971090;28;20039;-76
2022/01/09 08:46:43;;;;;;;0.20;0.15;;;;;;;;;;4972694;28;20410;-76
2022/01/09 08:49:08;;;;;;;1.25;0.40;;;;;;;;;;4969365;28;20478;-76
2022/01/09 08:51:34;;;;;;;0.68;0.20;;;;;;;;;;4973197;28;20125;-75
2022/01/09 08:53:59;;;;;;;0.68;0.40;;;;;;;;;;4968376;28;20462;-78
2022/01/09 08:56:25;;;;;;;1.38;0.30;;;;;;;;;;4973914;28;20023;-76
2022/01/09 08:58:50;;;;;;;0.20;0.20;;;;;;;;;;4972250;28;20377;-76
2022/01/09 09:01:16;;;;;;;0.22;0.20;;;;;;;;;;4970154;28;20094;-76
2022/01/09 09:03:41;;;;;;;0.95;0.43;;;;;;;;;;4970610;28;20027;-76
2022/01/09 09:06:14;;;;;;;0.45;0.32;;;;;;;;;;4972869;28;20415;-76
2022/01/09 09:08:40;;;;;;;0.60;0.30;;;;;;;;;;4972513;28;20089;-76
2022/01/09 09:11:06;;;;;;;1.08;0.38;;;;;;;;;;4954654;28;20487;-76
2022/01/09 09:13:31;;;;;;;0.55;0.32;;;;;;;;;;4971944;28;20027;-75
2022/01/09 09:15:57;;;;;;;0.47;0.38;;;;;;;;;;4968183;28;20109;-76
2022/01/09 09:18:22;;;;;;;0.57;0.40;;;;;;;;;;4966531;28;20038;-75
2022/01/09 09:20:47;;;;;;;0.47;0.40;;;;;;;;;;4968705;28;20538;-75
2022/01/09 09:23:12;;;;;;;0.77;0.63;;;;;;;;;;4971715;28;20039;-77
2022/01/09 09:25:37;;;;;;;1.10;0.40;;;;;;;;;;4968596;28;20110;-76
2022/01/09 09:28:03;;;;;;;0.20;0.20;;;;;;;;;;4972161;28;20473;-77
2022/01/09 09:30:28;;;;;;;0.32;0.30;;;;;;;;;;4972160;28;20033;-75
2022/01/09 09:32:53;;;;;;;2.65;0.30;;;;;;;;;;4972949;28;20022;-75
2022/01/09 09:35:19;;;;;;;0.43;0.32;;;;;;;;;;4971812;28;20070;-76
2022/01/09 09:37:44;;;;;;;0.77;0.30;;;;;;;;;;4968901;28;20324;-77
2022/01/09 09:40:10;;;;;;;1.48;0.50;;;;;;;;;;4973477;28;20115;-76
2022/01/09 09:42:35;;;;;;;0.43;0.30;;;;;;;;;;4971532;28;20085;-76
2022/01/09 09:45:02;;;;;;;1.00;0.50;;;;;;;;;;4967127;28;20031;-77
2022/01/09 09:47:28;;;;;;;1.25;0.50;;;;;;;;;;4970487;28;20058;-77
2022/01/09 09:49:53;;;;;;;0.82;0.40;;;;;;;;;;4971301;28;20057;-75
2022/01/09 09:52:19;;;;;;;0.40;0.40;;;;;;;;;;4971976;28;20031;-77
2022/01/09 09:54:48;;;;;;;1.33;0.50;;;;;;;;;;4965177;28;20429;-76
2022/01/09 09:57:13;;;;;;;1.50;0.45;;;;;;;;;;4966760;28;20121;-74
2022/01/09 09:59:38;;;;;;;1.05;0.52;;;;;;;;;;4968321;28;20464;-76
2022/01/09 10:02:10;;;;;;;1.05;0.50;;;;;;;;;;4969064;28;20092;-76
2022/01/09 10:04:35;;;;;;;0.80;0.40;;;;;;;;;;4970703;28;20094;-75
2022/01/09 10:07:00;;;;;;;1.27;0.50;;;;;;;;;;4968487;28;20462;-75
2022/01/09 10:09:25;;;;;;;1.23;0.60;;;;;;;;;;4967090;28;20077;-75
2022/01/09 10:11:52;;;;;;;1.85;0.50;;;;;;;;;;4971190;28;20038;-75
2022/01/09 10:14:21;;;;;;;1.08;0.50;;;;;;;;;;4968998;28;20022;-76
2022/01/09 10:17:05;;;;;;;1.38;0.50;;;;;;;;;;4970898;28;20137;-75
2022/01/09 10:19:48;;;;;;;2.55;0.50;;;;;;;;;;4969405;28;20058;-76
2022/01/09 10:22:33;;;;;;;0.95;0.55;;;;;;;;;;4969171;28;20034;-66
2022/01/09 10:25:16;;;;;;;0.88;0.57;;;;;;;;;;4970787;28;20058;-66
2022/01/09 10:27:41;;;;;;;2.83;1.35;;;;;;;;;;4967715;28;20486;-67
2022/01/09 10:30:07;;;;;;;3.25;0.73;;;;;;;;;;4969792;28;20038;-67
2022/01/09 10:32:32;;;;;;;1.85;0.57;;;;;;;;;;4968958;28;20466;-65
2022/01/09 10:35:08;;;;;;;1.08;0.60;;;;;;;;;;4969478;28;20022;-65
2022/01/09 10:37:35;;;;;;;1.48;0.40;;;;;;;;;;4970071;28;20402;-65
2022/01/09 10:40:00;;;;;;;1.52;0.80;;;;;;;;;;4968020;28;20090;-68
2022/01/09 10:42:26;;;;;;;1.33;0.60;;;;;;;;;;4970426;28;20394;-66
2022/01/09 10:44:51;;;;;;;2.38;0.90;;;;;;;;;;4970062;28;20070;-66
2022/01/09 10:47:17;;;;;;;1.50;0.50;;;;;;;;;;4964111;28;20076;-66
2022/01/09 10:49:43;;;;;;;1.58;0.60;;;;;;;;;;4968231;28;20023;-66
2022/01/09 10:52:12;;;;;;;2.42;0.77;;;;;;;;;;4969755;28;20113;-63
2022/01/09 10:54:39;;;;;;;2.70;0.80;;;;;;;;;;4968143;28;20025;-64
2022/01/09 10:57:13;;;;;;;1.98;0.70;;;;;;;;;;4970047;28;20344;-64
2022/01/09 10:59:39;;;;;;;2.13;0.90;;;;;;;;;;4965062;28;20026;-65
2022/01/09 11:02:04;;;;;;;2.05;0.70;;;;;;;;;;4966508;28;20032;-66
2022/01/09 11:04:30;;;;;;;2.78;0.70;;;;;;;;;;4970025;28;20023;-67
2022/01/09 11:06:55;;;;;;;3.40;0.60;;;;;;;;;;4956205;28;20046;-66
2022/01/09 11:09:22;;;;;;;1.60;0.60;;;;;;;;;;4968936;28;20109;-66
2022/01/09 11:11:47;;;;;;;1.65;0.50;;;;;;;;;;4964876;28;20038;-67
2022/01/09 11:14:17;;;;;;;2.30;0.80;;;;;;;;;;4968371;28;20085;-66
2022/01/09 11:16:51;;;;;;;1.77;0.50;;;;;;;;;;4968734;28;20058;-69
2022/01/09 11:19:17;;;;;;;3.17;1.00;;;;;;;;;;4969539;28;20037;-67
2022/01/09 11:21:46;;;;;;;3.13;0.60;;;;;;;;;;4969391;28;20411;-67
2022/01/09 11:24:11;;;;;;;2.55;0.68;;;;;;;;;;4968163;28;20061;-68
2022/01/09 11:26:39;;;;;;;5.63;0.98;;;;;;;;;;4969748;28;20435;-66
2022/01/09 11:29:10;;;;;;;2.90;0.90;;;;;;;;;;4964408;28;20058;-67
2022/01/09 11:31:43;;;;;;;2.58;0.70;;;;;;;;;;4966618;28;20136;-67
2022/01/09 11:34:38;;;;;;;3.25;0.90;;;;;;;;;;4963586;28;20106;-66
2022/01/09 11:37:22;;;;;;;1.88;0.70;;;;;;;;;;4924720;29;20130;-67
2022/01/09 11:39:47;;;;;;;2.80;0.70;;;;;;;;;;4927392;29;20035;-67
2022/01/09 11:42:13;;;;;;;3.00;0.90;;;;;;;;;;4927821;29;20655;-66
2022/01/09 11:44:51;;;;;;;3.45;0.70;;;;;;;;;;4927768;29;20031;-66
2022/01/09 11:47:17;;;;;;;2.60;0.68;;;;;;;;;;4926552;29;20541;-67
2022/01/09 11:49:56;;;;;;;2.67;0.80;;;;;;;;;;4927050;29;20032;-66
2022/01/09 11:52:22;;;;;;;2.40;1.00;;;;;;;;;;4925390;29;20142;-67
2022/01/09 11:54:51;;;;;;;2.42;0.70;;;;;;;;;;4925741;29;21256;-66
2022/01/09 11:57:35;;;;;;;3.38;1.00;;;;;;;;;;4924653;29;20044;-66
2022/01/09 12:00:00;;;;;;;3.80;0.90;;;;;;;;;;4926340;29;20107;-66
2022/01/09 12:02:28;;;;;;;2.78;1.02;;;;;;;;;;4923251;29;20511;-66
2022/01/09 12:04:54;;;;;;;2.22;0.80;;;;;;;;;;4928974;29;20024;-67
2022/01/09 12:07:31;;;;;;;3.83;0.80;;;;;;;;;;4925302;29;20055;-67
2022/01/09 12:09:57;;;;;;;3.58;0.77;;;;;;;;;;4927711;29;20028;-65
2022/01/09 12:12:33;;;;;;;2.83;1.00;;;;;;;;;;4923851;28;20095;-66
2022/01/09 12:15:05;;;;;;;4.10;1.20;;;;;;;;;;4964145;28;20047;-65
2022/01/09 12:17:33;;;;;;;2.63;0.80;;;;;;;;;;4966897;28;20824;-67
2022/01/09 12:20:09;;;;;;;3.88;0.77;;;;;;;;;;4968912;28;20023;-66
2022/01/09 12:22:45;;;;;;;4.63;0.98;;;;;;;;;;4971563;28;20650;-66
2022/01/09 12:25:23;;;;;;;4.85;1.00;;;;;;;;;;4971059;28;20082;-69
2022/01/09 12:27:54;;;;;;;3.72;1.05;;;;;;;;;;4968783;28;20045;-68
2022/01/09 12:30:51;;;;;;;5.30;1.05;;;;;;;;;;4971164;28;20043;-66
2022/01/09 12:33:24;;;;;;;2.67;0.98;;;;;;;;;;4970194;28;20042;-66
2022/01/09 12:36:10;;;;;;;4.28;1.00;;;;;;;;;;4967370;28;20094;-67
2022/01/09 12:38:40;;;;;;;4.13;0.93;;;;;;;;;;4971650;28;20101;-65
2022/01/09 12:41:07;;;;;;;3.15;1.10;;;;;;;;;;4972244;28;20351;-66
2022/01/09 12:43:33;;;;;;;5.13;0.90;;;;;;;;;;4972247;28;20110;-65
2022/01/09 12:45:58;;;;;;;2.90;0.73;;;;;;;;;;4968053;28;20033;-66
2022/01/09 12:48:31;;;;;;;3.75;1.40;;;;;;;;;;4967413;28;20043;-68
2022/01/09 12:51:05;;;;;;;5.10;1.10;;;;;;;;;;4970983;28;20027;-67
2022/01/09 12:53:35;;;;;;;3.58;0.80;;;;;;;;;;4972985;28;20035;-68
2022/01/09 12:56:08;;;;;;;3.75;0.88;;;;;;;;;;4967585;28;20069;-67
2022/01/09 12:58:33;;;;;;;2.33;0.70;;;;;;;;;;4966919;28;20038;-66
2022/01/09 13:01:00;;;;;;;5.45;1.23;;;;;;;;;;4968759;28;20340;-67
2022/01/09 13:03:30;;;;;;;3.08;0.85;;;;;;;;;;4969850;28;20096;-67
2022/01/09 13:05:56;;;;;;;3.50;0.77;;;;;;;;;;4971397;28;20118;-67
2022/01/09 13:08:21;;;;;;;3.08;0.80;;;;;;;;;;4973013;28;20087;-68
2022/01/09 13:10:54;;;;;;;3.60;1.00;;;;;;;;;;4969395;28;20039;-68
2022/01/09 13:13:22;;;;;;;2.88;0.90;;;;;;;;;;4965229;28;20759;-68
2022/01/09 13:15:47;;;;;;;2.20;0.63;;;;;;;;;;4969958;28;20134;-66
2022/01/09 13:18:12;;;;;;;3.15;0.90;;;;;;;;;;4972599;28;20104;-66
2022/01/09 13:20:37;;;;;;;4.85;0.82;;;;;;;;;;4974727;28;20034;-66
2022/01/09 13:23:07;;;;;;;4.07;0.90;;;;;;;;;;4970725;28;20027;-67
2022/01/09 13:25:45;;;;;;;3.58;0.80;;;;;;;;;;4967192;28;20025;-66
2022/01/09 13:28:28;;;;;;;3.20;0.77;;;;;;;;;;4966347;28;20146;-68
2022/01/09 13:30:57;;;;;;;3.75;1.38;;;;;;;;;;4965899;28;20019;-66
2022/01/09 13:33:22;;;;;;;4.68;0.93;;;;;;;;;;4970606;28;20446;-67
2022/01/09 13:35:47;;;;;;;2.55;0.85;;;;;;;;;;4969943;28;20137;-68
2022/01/09 13:38:13;;;;;;;5.90;1.05;;;;;;;;;;4971556;28;20066;-67
2022/01/09 13:40:38;;;;;;;3.33;1.10;;;;;;;;;;4971611;28;20030;-68
2022/01/09 13:43:04;;;;;;;1.88;0.80;;;;;;;;;;4971589;28;20027;-67
2022/01/09 13:45:33;;;;;;;7.78;1.40;;;;;;;;;;4971608;28;20596;-66
2022/01/09 13:47:59;;;;;;;2.70;0.90;;;;;;;;;;4970656;28;20088;-67
2022/01/09 13:50:33;;;;;;;4.07;1.02;;;;;;;;;;4970074;28;20105;-68
2022/01/09 13:53:05;;;;;;;4.03;1.20;;;;;;;;;;4970496;28;20026;-67
2022/01/09 13:55:32;;;;;;;10.73;1.50;;;;;;;;;;4971096;28;20048;-68
2022/01/09 13:58:01;;;;;;;5.57;1.30;;;;;;;;;;4970330;28;20023;-67
2022/01/09 14:00:27;;;;;;;5.50;1.00;;;;;;;;;;4970428;28;20122;-66
2022/01/09 14:02:53;;;;;;;4.22;0.95;;;;;;;;;;4969009;28;20023;-66
2022/01/09 14:05:19;;;;;;;4.35;1.10;;;;;;;;;;4967615;28;20031;-65
2022/01/09 14:07:46;;;;;;;3.85;1.23;;;;;;;;;;4971472;28;20154;-65
2022/01/09 14:10:11;;;;;;;4.93;0.98;;;;;;;;;;4970378;28;20097;-66
2022/01/09 14:12:37;;;;;;;4.25;1.02;;;;;;;;;;4970475;28;20474;-66
2022/01/09 14:15:12;;;;;;;3.75;1.10;;;;;;;;;;4964231;28;20067;-66
2022/01/09 14:17:41;;;;;;;3.70;0.82;;;;;;;;;;4967026;28;20035;-67
2022/01/09 14:20:13;;;;;;;3.95;1.02;;;;;;;;;;4967825;28;20069;-68
2022/01/09 14:22:42;;;;;;;6.15;1.35;;;;;;;;;;4965216;28;20390;-66
2022/01/09 14:25:09;;;;;;;3.85;1.13;;;;;;;;;;4966560;28;20378;-67
2022/01/09 14:27:36;;;;;;;3.95;0.93;;;;;;;;;;4967613;28;20046;-66
2022/01/09 14:30:03;;;;;;;4.05;1.10;;;;;;;;;;4970004;28;20089;-67
2022/01/09 14:32:28;;;;;;;3.25;1.00;;;;;;;;;;4951035;28;20478;-66
2022/01/09 14:34:55;;;;;;;2.70;0.95;;;;;;;;;;4970605;28;20089;-67
2022/01/09 14:37:20;;;;;;;5.32;1.10;;;;;;;;;;4969051;28;20034;-65
2022/01/09 14:39:46;;;;;;;3.42;0.80;;;;;;;;;;4971146;28;20661;-66
2022/01/09 14:42:11;;;;;;;3.72;1.08;;;;;;;;;;4970172;28;20035;-66
2022/01/09 14:44:36;;;;;;;7.07;1.35;;;;;;;;;;4964172;28;20038;-66